Marshall, MN

7:16 PM CDT on May 06, 2015 (GMT -0500)
Samuel Luth. School | | Change Station
CLOSE
Current Station
Personal Weather Station
Location: Marshall, MN
Elevation: 1145 ft
Nearby Weather Stations

Elev 1145 ft 44.46 °N, 95.77 °W | Updated 56 seconds ago

Clear
Clear
69.7 °F
Feels Like 69.7 °F
N
18.0
Wind Variable Wind from South
Gusts 34.0 mph

Today
High -- | Low -- °F
--% Chance of Precip.
Yesterday
High -- | Low -- °F
Precip. -- in
6:07 AM 8:33 PM
Waning Gibbous, 91% visible
Pressure 29.75 in
Visibility 10.0 miles
Clouds Clear
Dew Point 61 °F
Humidity 74%
Rainfall 0.15 in
Snow Depth Not available.
UV 1 out of 12
Pollen 7.20 out of 12
Air Quality Not available.
Flu Activity Sporadic
METAR KMML 062355Z AUTO 20021G27KT 10SM CLR 21/13 A2975 RMK AO1 60013 10240 20180 54000

More Conditions Fewer Conditions

Pressure 29.75 in
Visibility 10.0 miles
Clouds Clear
Dew Point 61 °F
Humidity 74%
Rainfall 0.15 in
Snow Depth Not available.
UV 1 out of 12
Pollen 7.20 out of 12
Air Quality Not available.
Flu Activity Sporadic
METAR KMML 062355Z AUTO 20021G27KT 10SM CLR 21/13 A2975 RMK AO1 60013 10240 20180 54000

More Conditions Fewer Conditions

10-Day Weather Forecast

Almanac

Astronomy

May. 06, 2015 Rise Set
Actual Time
Civil Twilight
Nautical Twilight
Astronomical Twilight
Moon
Length of Visible Light
Length of Day
Tomorrow will be .
, % of the Moon is Illuminated

Today's Extremes

State Highs State Lows

Community

WunderPhotos

Upload Photos

1,819,052 photos uploaded!

WunderBlogs® & News

Nearby

Air Quality

  Air Quality AQ Index Pollutant
Not available.

Snow Depth

Station Depth Elevation

Earthquake Activity

City Distance Mag. Time & Date
Minimum magnitude displayed is 2.5.

Coastal Water Temperatures

Place Temperature

Stations

Nearby Weather Stations

Station Location Temp. Windchill Dew Point Humidity Wind Precip. Elev Updated Type